createdAt,value
2022-12-27T00:00:35.970Z,4.19
2022-12-27T00:05:37.679Z,4.36
2022-12-27T00:10:39.908Z,4.43
2022-12-27T00:15:42.217Z,4.43
2022-12-27T00:20:43.879Z,4.34
2022-12-27T00:25:46.881Z,4.60
2022-12-27T00:30:55.000Z,4.57
2022-12-27T00:35:59.871Z,4.59
2022-12-27T00:41:02.660Z,4.53
2022-12-27T00:46:05.022Z,4.58
2022-12-27T00:51:13.732Z,4.57
2022-12-27T00:56:20.329Z,4.67
2022-12-27T01:01:24.364Z,4.52
2022-12-27T01:06:29.244Z,4.32
2022-12-27T01:11:31.747Z,4.35
2022-12-27T01:16:34.619Z,4.41
2022-12-27T01:21:36.589Z,4.28
2022-12-27T01:26:38.301Z,4.35
2022-12-27T01:31:40.948Z,4.63
2022-12-27T01:36:43.352Z,4.50
2022-12-27T01:42:04.474Z,4.54
2022-12-27T01:47:31.333Z,4.44
2022-12-27T01:52:37.241Z,4.40
2022-12-27T01:57:39.451Z,4.27
2022-12-27T02:02:41.518Z,4.39
2022-12-27T02:08:08.706Z,4.37
2022-12-27T02:13:10.584Z,4.36
2022-12-27T02:18:12.396Z,4.11
2022-12-27T02:23:56.126Z,4.29
2022-12-27T02:29:22.729Z,4.27
2022-12-27T02:34:28.909Z,4.20
2022-12-27T02:39:36.415Z,4.08
2022-12-27T02:44:56.618Z,4.03
2022-12-27T02:50:16.847Z,3.98
2022-12-27T02:55:18.425Z,3.97
2022-12-27T03:00:42.040Z,4.02
2022-12-27T03:06:24.215Z,3.95
2022-12-27T03:11:48.501Z,3.76
2022-12-27T03:16:57.685Z,3.75
2022-12-27T03:22:17.985Z,3.69
2022-12-27T03:27:28.418Z,3.63
2022-12-27T03:33:09.029Z,3.52
2022-12-27T03:38:12.986Z,3.56
2022-12-27T03:43:16.517Z,3.57
2022-12-27T03:48:22.566Z,3.34
2022-12-27T03:53:32.707Z,3.38
2022-12-27T03:58:34.487Z,3.21
2022-12-27T04:03:36.176Z,3.24
2022-12-27T04:08:56.444Z,3.24
2022-12-27T04:14:16.372Z,3.23
2022-12-27T04:19:36.381Z,3.23
2022-12-27T04:24:56.325Z,3.16
2022-12-27T04:30:16.719Z,3.10
2022-12-27T04:35:18.403Z,2.84
2022-12-27T04:40:38.711Z,2.95
2022-12-27T04:45:58.896Z,2.79
2022-12-27T04:51:19.686Z,2.73
2022-12-27T04:56:25.222Z,2.66
2022-12-27T05:01:45.559Z,2.63
2022-12-27T05:06:47.486Z,2.68
2022-12-27T05:12:07.414Z,2.85
2022-12-27T05:17:09.080Z,2.82
2022-12-27T05:22:29.222Z,2.91
2022-12-27T05:27:30.886Z,2.90
2022-12-27T05:32:32.526Z,3.01
2022-12-27T05:37:34.154Z,3.03
2022-12-27T05:42:35.748Z,3.01
2022-12-27T05:47:37.396Z,3.12
2022-12-27T05:52:41.293Z,3.11
2022-12-27T05:57:43.269Z,3.16
2022-12-27T06:02:45.050Z,3.33
2022-12-27T06:07:46.768Z,3.38
2022-12-27T06:12:48.400Z,3.33
2022-12-27T06:17:50.005Z,3.26
2022-12-27T06:22:52.028Z,3.23
2022-12-27T06:27:53.736Z,3.09
2022-12-27T06:32:55.394Z,3.08
2022-12-27T06:37:57.008Z,2.92
2022-12-27T06:42:58.704Z,2.81
2022-12-27T06:48:00.392Z,2.81
2022-12-27T06:53:02.040Z,2.87
2022-12-27T06:58:03.633Z,2.95
2022-12-27T07:03:06.015Z,2.78
2022-12-27T07:08:07.755Z,2.84
2022-12-27T07:13:09.356Z,2.80
2022-12-27T07:18:11.000Z,2.82
2022-12-27T07:23:19.264Z,2.91
2022-12-27T07:28:21.262Z,2.91
2022-12-27T07:33:22.927Z,2.85
2022-12-27T07:38:24.640Z,2.92
2022-12-27T07:43:29.286Z,2.88
2022-12-27T07:48:30.975Z,2.94
2022-12-27T07:53:33.661Z,3.01
2022-12-27T07:58:39.960Z,2.99
2022-12-27T08:03:42.052Z,3.14
2022-12-27T08:08:45.149Z,3.08
2022-12-27T08:13:47.452Z,3.24
2022-12-27T08:18:49.187Z,3.37
2022-12-27T08:23:50.826Z,3.44
2022-12-27T08:28:52.583Z,3.49
2022-12-27T08:33:58.663Z,3.50
2022-12-27T08:39:00.651Z,3.55
2022-12-27T08:44:02.282Z,3.65
2022-12-27T08:49:04.647Z,3.78
2022-12-27T08:54:06.336Z,3.81
2022-12-27T08:59:08.025Z,4.03
2022-12-27T09:04:09.965Z,3.95
2022-12-27T09:09:11.668Z,4.01
2022-12-27T09:14:13.515Z,3.95
2022-12-27T09:19:15.445Z,3.92
2022-12-27T09:24:17.446Z,4.01
2022-12-27T09:29:19.425Z,4.11
2022-12-27T09:34:21.182Z,4.18
2022-12-27T09:39:23.027Z,4.29
2022-12-27T09:44:43.657Z,4.30
2022-12-27T09:49:49.411Z,4.41
2022-12-27T09:55:05.436Z,4.28
2022-12-27T10:00:16.314Z,4.50
2022-12-27T10:05:24.281Z,4.63
2022-12-27T10:10:35.131Z,4.59
2022-12-27T10:15:50.856Z,4.73
2022-12-27T10:21:11.210Z,4.86
2022-12-27T10:26:19.993Z,4.88
2022-12-27T10:31:23.887Z,4.90
2022-12-27T10:36:31.017Z,4.82
2022-12-27T10:41:33.056Z,5.00
2022-12-27T10:46:35.015Z,5.06
2022-12-27T10:51:41.431Z,5.21
2022-12-27T10:56:44.372Z,5.30
2022-12-27T11:01:51.413Z,5.45
2022-12-27T11:07:02.238Z,5.61
2022-12-27T11:12:14.051Z,6.06
2022-12-27T11:17:15.774Z,6.86
2022-12-27T11:22:18.112Z,6.94
2022-12-27T11:27:29.153Z,6.52
2022-12-27T11:32:31.941Z,7.06
2022-12-27T11:37:39.857Z,6.39
2022-12-27T11:42:47.538Z,7.07
2022-12-27T11:47:56.702Z,7.22
2022-12-27T11:53:39.969Z,6.70
2022-12-27T11:59:03.165Z,6.52
2022-12-27T12:04:25.977Z,6.18
2022-12-27T12:09:31.081Z,6.05
2022-12-27T12:15:10.460Z,6.02
2022-12-27T12:20:30.417Z,5.92
2022-12-27T12:25:47.516Z,5.90
2022-12-27T12:31:00.516Z,5.91
2022-12-27T12:36:20.870Z,5.95
2022-12-27T12:41:42.542Z,5.96
2022-12-27T12:46:44.081Z,6.14
2022-12-27T12:51:54.872Z,5.96
2022-12-27T12:56:59.448Z,5.96
2022-12-27T13:02:16.621Z,5.91
2022-12-27T13:07:22.420Z,5.89
2022-12-27T13:12:46.164Z,5.92
2022-12-27T13:18:02.565Z,5.93
2022-12-27T13:23:20.385Z,5.99
2022-12-27T13:28:21.977Z,5.89
2022-12-27T13:33:29.878Z,5.96
2022-12-27T13:38:40.290Z,6.02
2022-12-27T13:43:52.086Z,5.83
2022-12-27T13:49:00.956Z,5.84
2022-12-27T13:54:12.123Z,5.83
2022-12-27T13:59:14.375Z,5.88
2022-12-27T14:04:20.585Z,5.84
2022-12-27T14:09:30.038Z,5.70
2022-12-27T14:14:33.260Z,5.81
2022-12-27T14:19:51.522Z,5.60
2022-12-27T14:25:31.931Z,5.64
2022-12-27T14:30:44.434Z,5.62
2022-12-27T14:36:01.141Z,5.70
2022-12-27T14:41:21.345Z,5.60
2022-12-27T14:46:43.897Z,5.69
2022-12-27T14:52:10.497Z,5.68
2022-12-27T14:57:33.514Z,5.69
2022-12-27T15:02:38.886Z,5.62
2022-12-27T15:13:13.987Z,5.17
2022-12-27T15:18:16.737Z,5.35
2022-12-27T15:23:37.220Z,5.23
2022-12-27T15:28:57.569Z,5.14
2022-12-27T15:34:19.144Z,4.90
2022-12-27T15:39:32.994Z,4.85
2022-12-27T15:44:40.082Z,4.71
2022-12-27T15:49:41.632Z,4.56
2022-12-27T15:54:45.508Z,4.46
2022-12-27T15:59:52.793Z,4.45
2022-12-27T16:04:57.476Z,4.30
2022-12-27T16:09:59.143Z,4.21
2022-12-27T16:15:19.499Z,4.11
2022-12-27T16:20:22.182Z,4.26
2022-12-27T16:25:42.643Z,4.13
2022-12-27T16:30:44.126Z,3.99
2022-12-27T16:35:45.727Z,3.88
2022-12-27T16:40:50.409Z,3.88
2022-12-27T16:45:58.853Z,3.84
2022-12-27T16:51:00.411Z,3.89
2022-12-27T16:56:11.076Z,3.85
2022-12-27T17:01:18.653Z,3.66
2022-12-27T17:06:31.931Z,3.54
2022-12-27T17:11:46.962Z,3.54
2022-12-27T17:16:58.904Z,3.63
2022-12-27T17:22:03.844Z,3.60
2022-12-27T17:27:17.664Z,3.61
2022-12-27T17:32:28.328Z,3.51
2022-12-27T17:37:42.618Z,3.67
2022-12-27T17:43:18.303Z,3.70
2022-12-27T17:48:29.739Z,3.53
2022-12-27T17:53:51.535Z,3.43
2022-12-27T17:58:58.062Z,3.58
2022-12-27T18:04:02.593Z,3.65
2022-12-27T18:09:04.492Z,3.70
2022-12-27T18:14:06.255Z,3.60
2022-12-27T18:19:08.097Z,3.60
2022-12-27T18:24:26.657Z,3.63
2022-12-27T18:29:28.407Z,3.67
2022-12-27T18:34:35.212Z,3.65
2022-12-27T18:39:39.075Z,3.78
2022-12-27T18:44:45.966Z,3.69
2022-12-27T18:49:52.006Z,3.78
2022-12-27T18:54:53.776Z,3.77
2022-12-27T19:00:14.268Z,3.66
2022-12-27T19:05:19.381Z,3.72
2022-12-27T19:10:22.651Z,3.83
2022-12-27T19:15:28.104Z,3.76
2022-12-27T19:20:31.729Z,3.83
2022-12-27T19:25:35.191Z,3.81
2022-12-27T19:30:43.122Z,3.81
2022-12-27T19:35:44.750Z,3.78
2022-12-27T19:40:48.741Z,3.82
2022-12-27T19:45:50.305Z,3.81
2022-12-27T19:50:53.679Z,3.96
2022-12-27T19:55:55.180Z,3.97
2022-12-27T20:00:57.737Z,3.77
2022-12-27T20:06:12.599Z,3.79
2022-12-27T20:11:17.870Z,3.59
2022-12-27T20:16:19.936Z,3.50
2022-12-27T20:21:21.909Z,3.26
2022-12-27T20:26:24.518Z,3.58
2022-12-27T20:31:26.646Z,3.51
2022-12-27T20:36:28.356Z,3.41
2022-12-27T20:41:30.047Z,3.59
2022-12-27T20:46:31.607Z,3.51
2022-12-27T20:51:33.519Z,3.44
2022-12-27T20:56:35.305Z,3.45
2022-12-27T21:01:37.002Z,3.42
2022-12-27T21:06:39.155Z,3.44
2022-12-27T21:11:41.186Z,3.39
2022-12-27T21:16:42.783Z,3.56
2022-12-27T21:21:44.960Z,3.49
2022-12-27T21:26:47.161Z,3.50
2022-12-27T21:31:49.961Z,3.74
2022-12-27T21:36:54.201Z,3.74
2022-12-27T21:41:55.841Z,3.63
2022-12-27T21:46:57.341Z,3.56
2022-12-27T21:51:58.847Z,3.53
2022-12-27T21:57:00.498Z,3.59
2022-12-27T22:02:02.109Z,3.74
2022-12-27T22:07:03.748Z,3.73
2022-12-27T22:12:05.356Z,3.54
2022-12-27T22:17:06.871Z,3.41
2022-12-27T22:22:08.398Z,3.64
2022-12-27T22:27:09.940Z,3.67
2022-12-27T22:32:11.514Z,3.90
2022-12-27T22:37:13.003Z,3.86
2022-12-27T22:42:14.534Z,3.83
2022-12-27T22:47:26.140Z,3.98
2022-12-27T22:52:29.099Z,3.74
2022-12-27T22:57:31.447Z,3.56
2022-12-27T23:02:33.257Z,4.00
2022-12-27T23:08:05.616Z,3.87
2022-12-27T23:12:56.550Z,3.79
2022-12-27T23:17:58.975Z,3.87
2022-12-27T23:23:00.470Z,3.79
2022-12-27T23:28:02.068Z,3.54
2022-12-27T23:33:03.991Z,3.85
2022-12-27T23:38:05.642Z,3.78
2022-12-27T23:43:49.986Z,3.57
2022-12-27T23:48:28.704Z,3.70
2022-12-27T23:53:30.225Z,3.66
2022-12-27T23:58:31.855Z,3.88
